sensor_id;sensor_type;location;lat;lon;timestamp;P1;durP1;ratioP1;P2;durP2;ratioP2
17761;SDS011;9005;48.838;10.112;2024-02-21T00:01:21;6.68;;;4.40;;
17761;SDS011;9005;48.838;10.112;2024-02-21T00:03:48;4.68;;;2.22;;
17761;SDS011;9005;48.838;10.112;2024-02-21T00:06:15;3.67;;;1.63;;
17761;SDS011;9005;48.838;10.112;2024-02-21T00:08:42;6.47;;;2.40;;
17761;SDS011;9005;48.838;10.112;2024-02-21T00:11:08;6.00;;;2.53;;
17761;SDS011;9005;48.838;10.112;2024-02-21T00:13:36;9.35;;;4.97;;
17761;SDS011;9005;48.838;10.112;2024-02-21T00:16:03;3.95;;;2.40;;
17761;SDS011;9005;48.838;10.112;2024-02-21T00:18:30;3.75;;;1.70;;
17761;SDS011;9005;48.838;10.112;2024-02-21T00:20:57;6.25;;;3.60;;
17761;SDS011;9005;48.838;10.112;2024-02-21T00:23:26;11.52;;;5.85;;
17761;SDS011;9005;48.838;10.112;2024-02-21T00:25:53;3.17;;;2.25;;
17761;SDS011;9005;48.838;10.112;2024-02-21T00:28:20;7.63;;;3.78;;
17761;SDS011;9005;48.838;10.112;2024-02-21T00:30:48;3.78;;;2.33;;
17761;SDS011;9005;48.838;10.112;2024-02-21T00:33:16;4.22;;;1.88;;
17761;SDS011;9005;48.838;10.112;2024-02-21T00:35:43;8.77;;;3.35;;
17761;SDS011;9005;48.838;10.112;2024-02-21T00:38:09;7.10;;;2.85;;
17761;SDS011;9005;48.838;10.112;2024-02-21T00:40:36;2.67;;;1.80;;
17761;SDS011;9005;48.838;10.112;2024-02-21T00:43:03;3.60;;;2.00;;
17761;SDS011;9005;48.838;10.112;2024-02-21T00:45:29;6.63;;;2.30;;
17761;SDS011;9005;48.838;10.112;2024-02-21T00:47:58;5.32;;;1.77;;
17761;SDS011;9005;48.838;10.112;2024-02-21T00:50:24;5.82;;;2.42;;
17761;SDS011;9005;48.838;10.112;2024-02-21T00:52:51;5.57;;;2.45;;
17761;SDS011;9005;48.838;10.112;2024-02-21T00:55:18;3.50;;;2.25;;
17761;SDS011;9005;48.838;10.112;2024-02-21T00:57:44;4.32;;;2.03;;
17761;SDS011;9005;48.838;10.112;2024-02-21T01:00:12;4.57;;;1.95;;
17761;SDS011;9005;48.838;10.112;2024-02-21T01:02:39;5.07;;;1.92;;
17761;SDS011;9005;48.838;10.112;2024-02-21T01:05:07;5.38;;;1.90;;
17761;SDS011;9005;48.838;10.112;2024-02-21T01:07:34;5.03;;;2.00;;
17761;SDS011;9005;48.838;10.112;2024-02-21T01:10:01;6.22;;;1.95;;
17761;SDS011;9005;48.838;10.112;2024-02-21T01:12:27;6.60;;;1.95;;
17761;SDS011;9005;48.838;10.112;2024-02-21T01:14:54;5.95;;;2.55;;
17761;SDS011;9005;48.838;10.112;2024-02-21T01:17:21;3.75;;;2.17;;
17761;SDS011;9005;48.838;10.112;2024-02-21T01:19:48;7.22;;;2.13;;
17761;SDS011;9005;48.838;10.112;2024-02-21T01:22:16;3.67;;;1.85;;
17761;SDS011;9005;48.838;10.112;2024-02-21T01:24:42;7.80;;;2.38;;
17761;SDS011;9005;48.838;10.112;2024-02-21T01:27:09;5.80;;;1.88;;
17761;SDS011;9005;48.838;10.112;2024-02-21T01:29:36;4.32;;;1.70;;
17761;SDS011;9005;48.838;10.112;2024-02-21T01:32:03;3.55;;;1.95;;
17761;SDS011;9005;48.838;10.112;2024-02-21T01:34:31;3.13;;;1.73;;
17761;SDS011;9005;48.838;10.112;2024-02-21T01:36:57;4.88;;;2.13;;
17761;SDS011;9005;48.838;10.112;2024-02-21T01:39:30;5.50;;;2.47;;
17761;SDS011;9005;48.838;10.112;2024-02-21T01:41:57;5.57;;;2.95;;
17761;SDS011;9005;48.838;10.112;2024-02-21T01:44:24;3.47;;;2.25;;
17761;SDS011;9005;48.838;10.112;2024-02-21T01:46:51;3.65;;;2.25;;
17761;SDS011;9005;48.838;10.112;2024-02-21T01:49:18;6.18;;;1.80;;
17761;SDS011;9005;48.838;10.112;2024-02-21T01:51:46;4.35;;;2.05;;
17761;SDS011;9005;48.838;10.112;2024-02-21T01:54:14;4.60;;;2.13;;
17761;SDS011;9005;48.838;10.112;2024-02-21T01:56:43;5.78;;;2.03;;
17761;SDS011;9005;48.838;10.112;2024-02-21T01:59:11;5.25;;;1.95;;
17761;SDS011;9005;48.838;10.112;2024-02-21T02:01:38;4.07;;;2.03;;
17761;SDS011;9005;48.838;10.112;2024-02-21T02:04:06;4.45;;;1.85;;
17761;SDS011;9005;48.838;10.112;2024-02-21T02:06:33;5.22;;;2.45;;
17761;SDS011;9005;48.838;10.112;2024-02-21T02:08:59;4.97;;;1.80;;
17761;SDS011;9005;48.838;10.112;2024-02-21T02:11:26;5.30;;;1.58;;
17761;SDS011;9005;48.838;10.112;2024-02-21T02:13:54;5.18;;;2.72;;
17761;SDS011;9005;48.838;10.112;2024-02-21T02:16:21;4.60;;;1.95;;
17761;SDS011;9005;48.838;10.112;2024-02-21T02:18:48;4.40;;;1.73;;
17761;SDS011;9005;48.838;10.112;2024-02-21T02:21:16;2.88;;;1.42;;
17761;SDS011;9005;48.838;10.112;2024-02-21T02:23:52;4.10;;;1.60;;
17761;SDS011;9005;48.838;10.112;2024-02-21T02:26:19;3.30;;;1.48;;
17761;SDS011;9005;48.838;10.112;2024-02-21T02:28:45;5.30;;;1.73;;
17761;SDS011;9005;48.838;10.112;2024-02-21T02:31:12;6.32;;;1.85;;
17761;SDS011;9005;48.838;10.112;2024-02-21T02:33:39;3.85;;;1.70;;
17761;SDS011;9005;48.838;10.112;2024-02-21T02:36:06;3.83;;;1.80;;
17761;SDS011;9005;48.838;10.112;2024-02-21T02:38:33;3.20;;;1.30;;
17761;SDS011;9005;48.838;10.112;2024-02-21T02:41:01;1.88;;;1.50;;
17761;SDS011;9005;48.838;10.112;2024-02-21T02:43:27;3.00;;;1.30;;
17761;SDS011;9005;48.838;10.112;2024-02-21T02:45:54;2.65;;;1.45;;
17761;SDS011;9005;48.838;10.112;2024-02-21T02:48:21;4.75;;;2.72;;
17761;SDS011;9005;48.838;10.112;2024-02-21T02:50:48;3.25;;;1.60;;
17761;SDS011;9005;48.838;10.112;2024-02-21T02:53:15;2.97;;;1.48;;
17761;SDS011;9005;48.838;10.112;2024-02-21T02:55:42;3.55;;;1.20;;
17761;SDS011;9005;48.838;10.112;2024-02-21T02:58:10;3.70;;;1.30;;
17761;SDS011;9005;48.838;10.112;2024-02-21T03:00:36;3.10;;;1.10;;
17761;SDS011;9005;48.838;10.112;2024-02-21T03:03:04;3.75;;;1.90;;
17761;SDS011;9005;48.838;10.112;2024-02-21T03:05:31;4.05;;;1.25;;
17761;SDS011;9005;48.838;10.112;2024-02-21T03:07:58;2.90;;;1.48;;
17761;SDS011;9005;48.838;10.112;2024-02-21T03:10:24;2.90;;;1.40;;
17761;SDS011;9005;48.838;10.112;2024-02-21T03:12:51;2.92;;;1.10;;
17761;SDS011;9005;48.838;10.112;2024-02-21T03:15:20;4.65;;;1.75;;
17761;SDS011;9005;48.838;10.112;2024-02-21T03:17:46;2.72;;;1.42;;
17761;SDS011;9005;48.838;10.112;2024-02-21T03:20:13;3.97;;;1.35;;
17761;SDS011;9005;48.838;10.112;2024-02-21T03:22:40;2.40;;;1.40;;
17761;SDS011;9005;48.838;10.112;2024-02-21T03:25:07;3.50;;;1.67;;
17761;SDS011;9005;48.838;10.112;2024-02-21T03:27:34;4.80;;;1.77;;
17761;SDS011;9005;48.838;10.112;2024-02-21T03:30:01;2.85;;;1.67;;
17761;SDS011;9005;48.838;10.112;2024-02-21T03:32:30;4.18;;;2.15;;
17761;SDS011;9005;48.838;10.112;2024-02-21T03:34:57;3.97;;;1.95;;
17761;SDS011;9005;48.838;10.112;2024-02-21T03:37:24;3.08;;;1.98;;
17761;SDS011;9005;48.838;10.112;2024-02-21T03:39:51;4.65;;;2.13;;
17761;SDS011;9005;48.838;10.112;2024-02-21T03:42:18;3.03;;;2.00;;
17761;SDS011;9005;48.838;10.112;2024-02-21T03:44:44;4.15;;;2.08;;
17761;SDS011;9005;48.838;10.112;2024-02-21T03:47:11;3.88;;;2.08;;
17761;SDS011;9005;48.838;10.112;2024-02-21T03:49:39;3.63;;;1.75;;
17761;SDS011;9005;48.838;10.112;2024-02-21T03:52:06;4.82;;;2.08;;
17761;SDS011;9005;48.838;10.112;2024-02-21T03:54:34;3.60;;;1.85;;
17761;SDS011;9005;48.838;10.112;2024-02-21T03:57:00;2.67;;;1.98;;
17761;SDS011;9005;48.838;10.112;2024-02-21T03:59:27;5.93;;;2.13;;
17761;SDS011;9005;48.838;10.112;2024-02-21T04:01:54;5.47;;;1.73;;
17761;SDS011;9005;48.838;10.112;2024-02-21T04:04:21;4.75;;;2.38;;
17761;SDS011;9005;48.838;10.112;2024-02-21T04:06:49;2.63;;;1.65;;
17761;SDS011;9005;48.838;10.112;2024-02-21T04:09:17;4.28;;;1.77;;
17761;SDS011;9005;48.838;10.112;2024-02-21T04:11:43;2.85;;;1.55;;
17761;SDS011;9005;48.838;10.112;2024-02-21T04:14:10;4.95;;;1.83;;
17761;SDS011;9005;48.838;10.112;2024-02-21T04:16:37;3.10;;;1.42;;
17761;SDS011;9005;48.838;10.112;2024-02-21T04:19:04;3.38;;;1.58;;
17761;SDS011;9005;48.838;10.112;2024-02-21T04:21:31;2.33;;;1.42;;
17761;SDS011;9005;48.838;10.112;2024-02-21T04:23:59;2.95;;;1.67;;
17761;SDS011;9005;48.838;10.112;2024-02-21T04:26:26;4.13;;;1.60;;
17761;SDS011;9005;48.838;10.112;2024-02-21T04:28:53;2.75;;;1.60;;
17761;SDS011;9005;48.838;10.112;2024-02-21T04:31:20;1.60;;;1.02;;
17761;SDS011;9005;48.838;10.112;2024-02-21T04:33:47;3.83;;;1.80;;
17761;SDS011;9005;48.838;10.112;2024-02-21T04:36:14;3.25;;;1.67;;
17761;SDS011;9005;48.838;10.112;2024-02-21T04:38:40;2.75;;;1.40;;
17761;SDS011;9005;48.838;10.112;2024-02-21T04:41:09;4.22;;;1.60;;
17761;SDS011;9005;48.838;10.112;2024-02-21T04:43:35;3.92;;;1.40;;
17761;SDS011;9005;48.838;10.112;2024-02-21T04:46:02;3.00;;;1.60;;
17761;SDS011;9005;48.838;10.112;2024-02-21T04:48:30;5.78;;;1.70;;
17761;SDS011;9005;48.838;10.112;2024-02-21T04:50:57;4.70;;;1.60;;
17761;SDS011;9005;48.838;10.112;2024-02-21T04:53:24;4.10;;;1.70;;
17761;SDS011;9005;48.838;10.112;2024-02-21T04:55:50;2.55;;;1.45;;
17761;SDS011;9005;48.838;10.112;2024-02-21T04:58:18;2.47;;;1.38;;
17761;SDS011;9005;48.838;10.112;2024-02-21T05:00:45;2.17;;;1.15;;
17761;SDS011;9005;48.838;10.112;2024-02-21T05:03:12;2.30;;;1.42;;
17761;SDS011;9005;48.838;10.112;2024-02-21T05:05:38;2.45;;;1.65;;
17761;SDS011;9005;48.838;10.112;2024-02-21T05:08:05;4.15;;;1.83;;
17761;SDS011;9005;48.838;10.112;2024-02-21T05:10:32;4.05;;;1.90;;
17761;SDS011;9005;48.838;10.112;2024-02-21T05:12:59;3.25;;;1.50;;
17761;SDS011;9005;48.838;10.112;2024-02-21T05:15:27;2.28;;;0.75;;
17761;SDS011;9005;48.838;10.112;2024-02-21T05:17:54;4.30;;;1.70;;
17761;SDS011;9005;48.838;10.112;2024-02-21T05:20:20;3.65;;;1.55;;
17761;SDS011;9005;48.838;10.112;2024-02-21T05:22:47;3.70;;;1.77;;
17761;SDS011;9005;48.838;10.112;2024-02-21T05:25:14;3.65;;;1.40;;
17761;SDS011;9005;48.838;10.112;2024-02-21T05:27:41;5.13;;;1.40;;
17761;SDS011;9005;48.838;10.112;2024-02-21T05:30:08;5.55;;;1.75;;
17761;SDS011;9005;48.838;10.112;2024-02-21T05:32:36;2.50;;;1.15;;
17761;SDS011;9005;48.838;10.112;2024-02-21T05:35:03;4.25;;;1.80;;
17761;SDS011;9005;48.838;10.112;2024-02-21T05:37:30;4.10;;;1.95;;
17761;SDS011;9005;48.838;10.112;2024-02-21T05:39:57;3.88;;;1.77;;
17761;SDS011;9005;48.838;10.112;2024-02-21T05:42:23;5.10;;;2.08;;
17761;SDS011;9005;48.838;10.112;2024-02-21T05:44:50;3.15;;;1.20;;
17761;SDS011;9005;48.838;10.112;2024-02-21T05:47:17;4.63;;;2.42;;
17761;SDS011;9005;48.838;10.112;2024-02-21T05:49:46;4.38;;;2.20;;
17761;SDS011;9005;48.838;10.112;2024-02-21T05:52:13;3.30;;;1.85;;
17761;SDS011;9005;48.838;10.112;2024-02-21T05:54:40;4.25;;;2.35;;
17761;SDS011;9005;48.838;10.112;2024-02-21T05:57:07;2.22;;;1.60;;
17761;SDS011;9005;48.838;10.112;2024-02-21T05:59:34;5.43;;;2.17;;
17761;SDS011;9005;48.838;10.112;2024-02-21T06:02:05;5.03;;;1.88;;
17761;SDS011;9005;48.838;10.112;2024-02-21T06:04:31;4.55;;;1.60;;
17761;SDS011;9005;48.838;10.112;2024-02-21T06:06:59;4.20;;;1.60;;
17761;SDS011;9005;48.838;10.112;2024-02-21T06:09:26;2.25;;;1.40;;
17761;SDS011;9005;48.838;10.112;2024-02-21T06:11:53;2.95;;;1.55;;
17761;SDS011;9005;48.838;10.112;2024-02-21T06:14:19;2.92;;;1.45;;
17761;SDS011;9005;48.838;10.112;2024-02-21T06:16:46;3.80;;;1.55;;
17761;SDS011;9005;48.838;10.112;2024-02-21T06:19:13;2.58;;;1.50;;
17761;SDS011;9005;48.838;10.112;2024-02-21T06:21:40;3.30;;;1.70;;
17761;SDS011;9005;48.838;10.112;2024-02-21T06:24:08;3.33;;;1.55;;
17761;SDS011;9005;48.838;10.112;2024-02-21T06:26:34;3.15;;;1.63;;
17761;SDS011;9005;48.838;10.112;2024-02-21T06:29:01;3.33;;;1.60;;
17761;SDS011;9005;48.838;10.112;2024-02-21T06:31:28;1.95;;;1.23;;
17761;SDS011;9005;48.838;10.112;2024-02-21T06:33:56;3.85;;;1.38;;
17761;SDS011;9005;48.838;10.112;2024-02-21T06:36:23;2.13;;;1.33;;
17761;SDS011;9005;48.838;10.112;2024-02-21T06:38:49;6.57;;;1.95;;
17761;SDS011;9005;48.838;10.112;2024-02-21T06:41:18;2.45;;;1.10;;
17761;SDS011;9005;48.838;10.112;2024-02-21T06:43:45;3.22;;;1.25;;
17761;SDS011;9005;48.838;10.112;2024-02-21T06:46:11;3.00;;;1.30;;
17761;SDS011;9005;48.838;10.112;2024-02-21T06:48:38;3.85;;;1.63;;
17761;SDS011;9005;48.838;10.112;2024-02-21T06:51:05;2.28;;;1.08;;
17761;SDS011;9005;48.838;10.112;2024-02-21T06:53:32;3.30;;;1.42;;
17761;SDS011;9005;48.838;10.112;2024-02-21T06:55:59;1.63;;;1.08;;
17761;SDS011;9005;48.838;10.112;2024-02-21T06:58:27;3.42;;;1.40;;
17761;SDS011;9005;48.838;10.112;2024-02-21T07:00:53;2.47;;;1.25;;
17761;SDS011;9005;48.838;10.112;2024-02-21T07:03:20;4.47;;;1.38;;
17761;SDS011;9005;48.838;10.112;2024-02-21T07:05:49;2.35;;;1.50;;
17761;SDS011;9005;48.838;10.112;2024-02-21T07:08:16;4.43;;;1.42;;
17761;SDS011;9005;48.838;10.112;2024-02-21T07:10:42;1.70;;;1.00;;
17761;SDS011;9005;48.838;10.112;2024-02-21T07:13:09;2.88;;;1.73;;
17761;SDS011;9005;48.838;10.112;2024-02-21T07:15:37;3.63;;;1.50;;
17761;SDS011;9005;48.838;10.112;2024-02-21T07:18:04;3.00;;;1.48;;
17761;SDS011;9005;48.838;10.112;2024-02-21T07:20:31;2.22;;;1.45;;
17761;SDS011;9005;48.838;10.112;2024-02-21T07:22:58;3.25;;;1.88;;
17761;SDS011;9005;48.838;10.112;2024-02-21T07:25:25;2.25;;;1.45;;
17761;SDS011;9005;48.838;10.112;2024-02-21T07:27:52;2.55;;;1.58;;
17761;SDS011;9005;48.838;10.112;2024-02-21T07:30:19;3.30;;;1.20;;
17761;SDS011;9005;48.838;10.112;2024-02-21T07:32:48;3.65;;;1.55;;
17761;SDS011;9005;48.838;10.112;2024-02-21T07:35:15;3.97;;;1.52;;
17761;SDS011;9005;48.838;10.112;2024-02-21T07:37:42;2.92;;;1.70;;
17761;SDS011;9005;48.838;10.112;2024-02-21T07:40:12;2.80;;;1.45;;
17761;SDS011;9005;48.838;10.112;2024-02-21T07:42:39;4.88;;;1.60;;
17761;SDS011;9005;48.838;10.112;2024-02-21T07:45:05;4.82;;;1.48;;
17761;SDS011;9005;48.838;10.112;2024-02-21T07:47:33;4.03;;;1.63;;
17761;SDS011;9005;48.838;10.112;2024-02-21T07:50:02;3.50;;;1.10;;
17761;SDS011;9005;48.838;10.112;2024-02-21T07:52:28;2.38;;;1.38;;
17761;SDS011;9005;48.838;10.112;2024-02-21T07:54:55;3.67;;;1.33;;
17761;SDS011;9005;48.838;10.112;2024-02-21T07:57:22;3.42;;;1.08;;
17761;SDS011;9005;48.838;10.112;2024-02-21T07:59:49;2.60;;;1.10;;
17761;SDS011;9005;48.838;10.112;2024-02-21T08:02:16;3.58;;;1.20;;
17761;SDS011;9005;48.838;10.112;2024-02-21T08:04:43;1.33;;;0.80;;
17761;SDS011;9005;48.838;10.112;2024-02-21T08:07:11;3.13;;;1.33;;
17761;SDS011;9005;48.838;10.112;2024-02-21T08:09:39;3.15;;;1.30;;
17761;SDS011;9005;48.838;10.112;2024-02-21T08:12:06;4.30;;;1.30;;
17761;SDS011;9005;48.838;10.112;2024-02-21T08:14:33;1.33;;;1.10;;
17761;SDS011;9005;48.838;10.112;2024-02-21T08:16:59;1.90;;;1.10;;
17761;SDS011;9005;48.838;10.112;2024-02-21T08:19:26;1.00;;;0.93;;
17761;SDS011;9005;48.838;10.112;2024-02-21T08:21:53;2.85;;;1.27;;
17761;SDS011;9005;48.838;10.112;2024-02-21T08:24:21;4.40;;;1.55;;
17761;SDS011;9005;48.838;10.112;2024-02-21T08:26:48;2.70;;;1.58;;
17761;SDS011;9005;48.838;10.112;2024-02-21T08:29:15;3.33;;;1.80;;
17761;SDS011;9005;48.838;10.112;2024-02-21T08:31:41;3.35;;;1.48;;
17761;SDS011;9005;48.838;10.112;2024-02-21T08:34:08;3.08;;;1.40;;
17761;SDS011;9005;48.838;10.112;2024-02-21T08:36:35;2.63;;;1.52;;
17761;SDS011;9005;48.838;10.112;2024-02-21T08:39:03;2.58;;;1.25;;
17761;SDS011;9005;48.838;10.112;2024-02-21T08:41:31;2.22;;;1.10;;
17761;SDS011;9005;48.838;10.112;2024-02-21T08:43:58;2.85;;;1.25;;
17761;SDS011;9005;48.838;10.112;2024-02-21T08:46:25;2.60;;;1.40;;
17761;SDS011;9005;48.838;10.112;2024-02-21T08:48:53;0.68;;;0.50;;
17761;SDS011;9005;48.838;10.112;2024-02-21T08:51:20;4.55;;;1.75;;
17761;SDS011;9005;48.838;10.112;2024-02-21T08:53:47;2.33;;;1.58;;
17761;SDS011;9005;48.838;10.112;2024-02-21T08:56:14;5.35;;;1.52;;
17761;SDS011;9005;48.838;10.112;2024-02-21T08:58:42;2.40;;;1.35;;
17761;SDS011;9005;48.838;10.112;2024-02-21T09:01:09;2.80;;;1.20;;
17761;SDS011;9005;48.838;10.112;2024-02-21T09:03:36;2.35;;;1.38;;
17761;SDS011;9005;48.838;10.112;2024-02-21T09:06:04;4.07;;;1.35;;
17761;SDS011;9005;48.838;10.112;2024-02-21T09:08:31;2.92;;;1.38;;
17761;SDS011;9005;48.838;10.112;2024-02-21T09:10:57;3.15;;;1.20;;
17761;SDS011;9005;48.838;10.112;2024-02-21T09:13:25;2.92;;;1.33;;
17761;SDS011;9005;48.838;10.112;2024-02-21T09:15:53;1.92;;;1.23;;
17761;SDS011;9005;48.838;10.112;2024-02-21T09:18:20;6.47;;;2.15;;
17761;SDS011;9005;48.838;10.112;2024-02-21T09:20:46;2.67;;;1.20;;
17761;SDS011;9005;48.838;10.112;2024-02-21T09:23:13;1.25;;;0.95;;
17761;SDS011;9005;48.838;10.112;2024-02-21T09:25:40;4.18;;;1.02;;
17761;SDS011;9005;48.838;10.112;2024-02-21T09:28:07;4.45;;;1.52;;
17761;SDS011;9005;48.838;10.112;2024-02-21T09:30:35;2.13;;;1.17;;
17761;SDS011;9005;48.838;10.112;2024-02-21T09:33:04;2.67;;;1.10;;
17761;SDS011;9005;48.838;10.112;2024-02-21T09:35:31;3.25;;;1.02;;
17761;SDS011;9005;48.838;10.112;2024-02-21T09:37:59;2.33;;;1.08;;
17761;SDS011;9005;48.838;10.112;2024-02-21T09:40:26;3.55;;;1.10;;
17761;SDS011;9005;48.838;10.112;2024-02-21T09:42:55;2.35;;;1.10;;
17761;SDS011;9005;48.838;10.112;2024-02-21T09:45:29;3.17;;;1.35;;
17761;SDS011;9005;48.838;10.112;2024-02-21T09:48:14;3.50;;;1.30;;
17761;SDS011;9005;48.838;10.112;2024-02-21T09:50:55;2.08;;;1.10;;
17761;SDS011;9005;48.838;10.112;2024-02-21T09:53:24;2.13;;;1.13;;
17761;SDS011;9005;48.838;10.112;2024-02-21T09:55:52;1.48;;;0.88;;
17761;SDS011;9005;48.838;10.112;2024-02-21T09:58:19;1.92;;;1.23;;
17761;SDS011;9005;48.838;10.112;2024-02-21T10:00:46;2.58;;;1.17;;
17761;SDS011;9005;48.838;10.112;2024-02-21T10:03:14;2.25;;;1.25;;
17761;SDS011;9005;48.838;10.112;2024-02-21T10:05:46;4.43;;;1.27;;
17761;SDS011;9005;48.838;10.112;2024-02-21T10:08:15;4.30;;;1.00;;
17761;SDS011;9005;48.838;10.112;2024-02-21T10:10:42;2.25;;;1.00;;
17761;SDS011;9005;48.838;10.112;2024-02-21T10:13:09;1.27;;;0.80;;
17761;SDS011;9005;48.838;10.112;2024-02-21T10:15:36;2.38;;;1.35;;
17761;SDS011;9005;48.838;10.112;2024-02-21T10:18:03;2.22;;;0.88;;
17761;SDS011;9005;48.838;10.112;2024-02-21T10:20:33;3.60;;;1.20;;
17761;SDS011;9005;48.838;10.112;2024-02-21T10:23:00;2.50;;;1.25;;
17761;SDS011;9005;48.838;10.112;2024-02-21T10:25:28;3.08;;;1.40;;
17761;SDS011;9005;48.838;10.112;2024-02-21T10:27:54;3.17;;;1.17;;
17761;SDS011;9005;48.838;10.112;2024-02-21T10:30:21;3.28;;;1.30;;
17761;SDS011;9005;48.838;10.112;2024-02-21T10:32:49;3.92;;;1.25;;
17761;SDS011;9005;48.838;10.112;2024-02-21T10:35:24;1.58;;;1.00;;
17761;SDS011;9005;48.838;10.112;2024-02-21T10:37:53;1.73;;;1.10;;
17761;SDS011;9005;48.838;10.112;2024-02-21T10:40:21;2.15;;;1.20;;
17761;SDS011;9005;48.838;10.112;2024-02-21T10:42:48;3.08;;;1.15;;
17761;SDS011;9005;48.838;10.112;2024-02-21T10:45:21;2.60;;;1.40;;
17761;SDS011;9005;48.838;10.112;2024-02-21T10:47:49;3.58;;;1.30;;
17761;SDS011;9005;48.838;10.112;2024-02-21T10:50:21;2.97;;;0.75;;
17761;SDS011;9005;48.838;10.112;2024-02-21T10:52:51;1.60;;;0.80;;
17761;SDS011;9005;48.838;10.112;2024-02-21T10:55:37;2.58;;;1.30;;
17761;SDS011;9005;48.838;10.112;2024-02-21T10:58:07;2.10;;;0.90;;
17761;SDS011;9005;48.838;10.112;2024-02-21T11:00:36;3.08;;;1.30;;
17761;SDS011;9005;48.838;10.112;2024-02-21T11:03:03;2.90;;;1.02;;
17761;SDS011;9005;48.838;10.112;2024-02-21T11:05:31;1.58;;;1.02;;
17761;SDS011;9005;48.838;10.112;2024-02-21T11:08:00;1.73;;;1.00;;
17761;SDS011;9005;48.838;10.112;2024-02-21T11:10:29;2.22;;;1.00;;
17761;SDS011;9005;48.838;10.112;2024-02-21T11:13:04;1.63;;;1.05;;
17761;SDS011;9005;48.838;10.112;2024-02-21T11:15:33;4.38;;;1.02;;
17761;SDS011;9005;48.838;10.112;2024-02-21T11:17:59;2.33;;;1.35;;
17761;SDS011;9005;48.838;10.112;2024-02-21T11:20:33;3.55;;;1.23;;
17761;SDS011;9005;48.838;10.112;2024-02-21T11:23:01;1.15;;;1.00;;
17761;SDS011;9005;48.838;10.112;2024-02-21T11:25:28;1.55;;;0.90;;
17761;SDS011;9005;48.838;10.112;2024-02-21T11:28:00;2.80;;;1.00;;
17761;SDS011;9005;48.838;10.112;2024-02-21T11:30:29;3.72;;;1.25;;
17761;SDS011;9005;48.838;10.112;2024-02-21T11:33:00;2.00;;;1.10;;
17761;SDS011;9005;48.838;10.112;2024-02-21T11:35:30;2.03;;;0.90;;
17761;SDS011;9005;48.838;10.112;2024-02-21T11:38:08;2.17;;;1.00;;
17761;SDS011;9005;48.838;10.112;2024-02-21T11:40:38;1.48;;;0.90;;
17761;SDS011;9005;48.838;10.112;2024-02-21T11:43:06;4.95;;;1.00;;
17761;SDS011;9005;48.838;10.112;2024-02-21T11:45:33;3.90;;;1.25;;
17761;SDS011;9005;48.838;10.112;2024-02-21T11:48:00;2.03;;;1.13;;
17761;SDS011;9005;48.838;10.112;2024-02-21T11:50:28;3.75;;;1.48;;
17761;SDS011;9005;48.838;10.112;2024-02-21T11:52:55;1.23;;;1.08;;
17761;SDS011;9005;48.838;10.112;2024-02-21T11:55:23;2.20;;;1.45;;
17761;SDS011;9005;48.838;10.112;2024-02-21T11:57:50;1.73;;;1.17;;
17761;SDS011;9005;48.838;10.112;2024-02-21T12:00:18;3.22;;;1.35;;
17761;SDS011;9005;48.838;10.112;2024-02-21T12:02:46;3.13;;;1.40;;
17761;SDS011;9005;48.838;10.112;2024-02-21T12:05:13;1.65;;;0.88;;
17761;SDS011;9005;48.838;10.112;2024-02-21T12:07:40;2.42;;;1.23;;
17761;SDS011;9005;48.838;10.112;2024-02-21T12:10:08;1.05;;;0.90;;
17761;SDS011;9005;48.838;10.112;2024-02-21T12:12:37;2.22;;;1.33;;
17761;SDS011;9005;48.838;10.112;2024-02-21T12:15:04;3.20;;;1.30;;
17761;SDS011;9005;48.838;10.112;2024-02-21T12:17:32;2.70;;;1.27;;
17761;SDS011;9005;48.838;10.112;2024-02-21T12:20:00;1.48;;;0.70;;
17761;SDS011;9005;48.838;10.112;2024-02-21T12:22:29;2.05;;;1.30;;
17761;SDS011;9005;48.838;10.112;2024-02-21T12:24:57;2.92;;;1.10;;
17761;SDS011;9005;48.838;10.112;2024-02-21T12:27:24;3.47;;;1.42;;
17761;SDS011;9005;48.838;10.112;2024-02-21T12:29:53;3.45;;;1.02;;
17761;SDS011;9005;48.838;10.112;2024-02-21T12:32:19;2.85;;;1.25;;
17761;SDS011;9005;48.838;10.112;2024-02-21T12:34:46;2.00;;;0.93;;
17761;SDS011;9005;48.838;10.112;2024-02-21T12:37:13;1.85;;;1.20;;
17761;SDS011;9005;48.838;10.112;2024-02-21T12:39:40;2.60;;;0.82;;
17761;SDS011;9005;48.838;10.112;2024-02-21T12:42:07;4.20;;;1.65;;
17761;SDS011;9005;48.838;10.112;2024-02-21T12:44:36;1.45;;;0.80;;
17761;SDS011;9005;48.838;10.112;2024-02-21T12:47:04;1.52;;;0.70;;
17761;SDS011;9005;48.838;10.112;2024-02-21T12:49:33;2.47;;;1.10;;
17761;SDS011;9005;48.838;10.112;2024-02-21T12:52:00;2.08;;;1.00;;
17761;SDS011;9005;48.838;10.112;2024-02-21T12:54:26;2.90;;;1.05;;
17761;SDS011;9005;48.838;10.112;2024-02-21T12:56:55;2.03;;;1.13;;
17761;SDS011;9005;48.838;10.112;2024-02-21T12:59:22;4.32;;;2.33;;
17761;SDS011;9005;48.838;10.112;2024-02-21T13:01:49;2.00;;;1.20;;
17761;SDS011;9005;48.838;10.112;2024-02-21T13:04:17;2.38;;;1.00;;
17761;SDS011;9005;48.838;10.112;2024-02-21T13:06:44;1.77;;;0.90;;
17761;SDS011;9005;48.838;10.112;2024-02-21T13:09:10;4.07;;;1.05;;
17761;SDS011;9005;48.838;10.112;2024-02-21T13:11:38;2.17;;;1.10;;
17761;SDS011;9005;48.838;10.112;2024-02-21T13:14:06;2.28;;;1.10;;
17761;SDS011;9005;48.838;10.112;2024-02-21T13:16:32;1.23;;;0.93;;
17761;SDS011;9005;48.838;10.112;2024-02-21T13:19:04;3.35;;;1.25;;
17761;SDS011;9005;48.838;10.112;2024-02-21T13:21:32;2.00;;;1.10;;
17761;SDS011;9005;48.838;10.112;2024-02-21T13:23:59;1.92;;;0.80;;
17761;SDS011;9005;48.838;10.112;2024-02-21T13:26:25;2.58;;;1.02;;
17761;SDS011;9005;48.838;10.112;2024-02-21T13:28:52;1.60;;;0.80;;
17761;SDS011;9005;48.838;10.112;2024-02-21T13:31:19;1.65;;;1.20;;
17761;SDS011;9005;48.838;10.112;2024-02-21T13:33:46;3.40;;;1.15;;
17761;SDS011;9005;48.838;10.112;2024-02-21T13:36:13;2.25;;;0.80;;
17761;SDS011;9005;48.838;10.112;2024-02-21T13:38:41;2.40;;;1.20;;
17761;SDS011;9005;48.838;10.112;2024-02-21T13:41:07;2.85;;;0.85;;
17761;SDS011;9005;48.838;10.112;2024-02-21T13:43:34;1.88;;;0.90;;
17761;SDS011;9005;48.838;10.112;2024-02-21T13:46:01;2.13;;;1.05;;
17761;SDS011;9005;48.838;10.112;2024-02-21T13:48:30;1.40;;;0.80;;
17761;SDS011;9005;48.838;10.112;2024-02-21T13:50:58;1.52;;;0.95;;
17761;SDS011;9005;48.838;10.112;2024-02-21T13:53:27;1.50;;;1.10;;
17761;SDS011;9005;48.838;10.112;2024-02-21T13:55:55;2.00;;;0.93;;
17761;SDS011;9005;48.838;10.112;2024-02-21T13:58:21;2.70;;;1.30;;
17761;SDS011;9005;48.838;10.112;2024-02-21T14:00:50;3.03;;;1.08;;
17761;SDS011;9005;48.838;10.112;2024-02-21T14:03:17;1.75;;;0.80;;
17761;SDS011;9005;48.838;10.112;2024-02-21T14:05:45;1.73;;;1.17;;
17761;SDS011;9005;48.838;10.112;2024-02-21T14:08:13;2.70;;;1.25;;
17761;SDS011;9005;48.838;10.112;2024-02-21T14:10:40;2.35;;;1.65;;
17761;SDS011;9005;48.838;10.112;2024-02-21T14:13:08;1.25;;;0.80;;
17761;SDS011;9005;48.838;10.112;2024-02-21T14:15:35;1.70;;;1.20;;
17761;SDS011;9005;48.838;10.112;2024-02-21T14:18:04;2.00;;;0.93;;
17761;SDS011;9005;48.838;10.112;2024-02-21T14:20:34;2.03;;;1.52;;
17761;SDS011;9005;48.838;10.112;2024-02-21T14:23:01;1.85;;;1.30;;
17761;SDS011;9005;48.838;10.112;2024-02-21T14:25:29;2.80;;;1.05;;
17761;SDS011;9005;48.838;10.112;2024-02-21T14:27:56;1.45;;;0.80;;
17761;SDS011;9005;48.838;10.112;2024-02-21T14:30:24;2.58;;;0.93;;
17761;SDS011;9005;48.838;10.112;2024-02-21T14:32:52;2.53;;;1.13;;
17761;SDS011;9005;48.838;10.112;2024-02-21T14:35:18;3.03;;;0.85;;
17761;SDS011;9005;48.838;10.112;2024-02-21T14:37:45;3.47;;;1.00;;
17761;SDS011;9005;48.838;10.112;2024-02-21T14:40:14;4.18;;;1.55;;
17761;SDS011;9005;48.838;10.112;2024-02-21T14:42:41;1.85;;;0.93;;
17761;SDS011;9005;48.838;10.112;2024-02-21T14:45:08;1.92;;;1.05;;
17761;SDS011;9005;48.838;10.112;2024-02-21T14:47:36;1.13;;;1.00;;
17761;SDS011;9005;48.838;10.112;2024-02-21T14:50:04;4.57;;;1.17;;